createdAt,value
2018-11-07T00:00:17.162Z,17.97
2018-11-07T00:02:45.380Z,17.67
2018-11-07T00:05:14.875Z,17.07
2018-11-07T00:07:45.625Z,15.17
2018-11-07T00:10:13.950Z,16.00
2018-11-07T00:12:42.235Z,15.20
2018-11-07T00:15:16.649Z,17.33
2018-11-07T00:17:56.962Z,14.47
2018-11-07T00:20:25.352Z,14.10
2018-11-07T00:22:53.729Z,16.47
2018-11-07T00:25:23.836Z,16.57
2018-11-07T00:27:58.689Z,15.43
2018-11-07T00:30:36.320Z,17.20
2018-11-07T00:33:05.031Z,15.43
2018-11-07T00:35:34.356Z,17.03
2018-11-07T00:38:05.052Z,17.27
2018-11-07T00:40:33.425Z,18.43
2018-11-07T00:43:01.786Z,14.37
2018-11-07T00:45:30.001Z,17.83
2018-11-07T00:47:58.278Z,15.47
2018-11-07T00:50:26.602Z,16.03
2018-11-07T00:52:55.873Z,15.03
2018-11-07T00:55:24.098Z,18.13
2018-11-07T00:57:52.394Z,16.80
2018-11-07T01:00:20.961Z,15.53
2018-11-07T01:02:49.859Z,17.70
2018-11-07T01:05:18.098Z,15.40
2018-11-07T01:07:47.326Z,16.53
2018-11-07T01:10:15.562Z,15.83
2018-11-07T01:12:44.083Z,18.07
2018-11-07T01:15:12.989Z,16.27
2018-11-07T01:17:41.201Z,13.60
2018-11-07T01:20:11.161Z,15.57
2018-11-07T01:22:39.405Z,14.53
2018-11-07T01:25:08.165Z,14.17
2018-11-07T01:27:36.386Z,13.83
2018-11-07T01:30:05.669Z,18.13
2018-11-07T01:32:33.901Z,14.17
2018-11-07T01:35:02.115Z,18.80
2018-11-07T01:37:30.427Z,17.93
2018-11-07T01:39:58.650Z,14.93
2018-11-07T01:42:26.886Z,15.23
2018-11-07T01:44:55.121Z,14.27
2018-11-07T01:47:23.345Z,16.47
2018-11-07T01:49:51.578Z,15.17
2018-11-07T01:52:19.808Z,16.50
2018-11-07T01:54:48.000Z,17.37
2018-11-07T01:57:16.251Z,14.10
2018-11-07T01:59:44.514Z,17.63
2018-11-07T02:02:12.818Z,15.93
2018-11-07T02:04:41.044Z,15.07
2018-11-07T02:07:09.482Z,14.07
2018-11-07T02:09:37.730Z,18.10
2018-11-07T02:12:05.954Z,18.90
2018-11-07T02:14:34.194Z,17.87
2018-11-07T02:17:02.487Z,19.73
2018-11-07T02:19:30.775Z,18.63
2018-11-07T02:21:58.989Z,20.13
2018-11-07T02:24:27.226Z,17.00
2018-11-07T02:26:55.441Z,17.60
2018-11-07T02:29:23.691Z,18.47
2018-11-07T02:31:51.906Z,16.77
2018-11-07T02:34:20.160Z,16.67
2018-11-07T02:36:48.427Z,19.47
2018-11-07T02:39:16.677Z,17.10
2018-11-07T02:41:45.061Z,18.87
2018-11-07T02:44:13.882Z,16.63
2018-11-07T02:46:42.993Z,19.10
2018-11-07T02:49:11.461Z,18.07
2018-11-07T02:51:39.695Z,16.53
2018-11-07T02:54:08.549Z,20.00
2018-11-07T02:56:36.795Z,19.50
2018-11-07T02:59:05.065Z,16.73
2018-11-07T03:01:33.348Z,15.70
2018-11-07T03:04:01.565Z,20.27
2018-11-07T03:06:29.819Z,16.40
2018-11-07T03:08:58.055Z,16.40
2018-11-07T03:11:26.310Z,17.17
2018-11-07T03:13:54.537Z,17.67
2018-11-07T03:16:22.766Z,16.80
2018-11-07T03:18:51.027Z,16.57
2018-11-07T03:21:19.286Z,15.57
2018-11-07T03:23:47.510Z,15.93
2018-11-07T03:26:15.738Z,16.73
2018-11-07T03:28:43.966Z,14.60
2018-11-07T03:31:12.194Z,17.40
2018-11-07T03:33:40.537Z,14.03
2018-11-07T03:36:09.273Z,15.57
2018-11-07T03:38:37.519Z,13.20
2018-11-07T03:41:06.297Z,15.63
2018-11-07T03:43:36.927Z,15.23
2018-11-07T03:46:05.625Z,12.27
2018-11-07T03:48:33.844Z,15.00
2018-11-07T03:51:02.060Z,14.40
2018-11-07T03:53:30.312Z,13.90
2018-11-07T03:55:58.518Z,14.47
2018-11-07T03:58:26.717Z,17.77
2018-11-07T04:00:54.964Z,15.23
2018-11-07T04:03:23.207Z,19.57
2018-11-07T04:05:51.430Z,18.60
2018-11-07T04:08:19.675Z,17.40
2018-11-07T04:10:47.919Z,16.03
2018-11-07T04:13:16.173Z,14.20
2018-11-07T04:15:44.403Z,15.83
2018-11-07T04:18:12.623Z,17.10
2018-11-07T04:20:40.837Z,12.90
2018-11-07T04:23:09.049Z,14.00
2018-11-07T04:25:37.266Z,14.47
2018-11-07T04:28:05.758Z,12.83
2018-11-07T04:30:33.974Z,13.33
2018-11-07T04:33:02.201Z,16.37
2018-11-07T04:35:30.422Z,16.57
2018-11-07T04:37:58.633Z,13.30
2018-11-07T04:40:26.870Z,15.03
2018-11-07T04:42:55.077Z,12.60
2018-11-07T04:45:23.325Z,14.13
2018-11-07T04:47:51.542Z,13.13
2018-11-07T04:50:19.781Z,14.50
2018-11-07T04:52:48.005Z,13.40
2018-11-07T04:55:16.219Z,14.27
2018-11-07T04:57:44.446Z,12.43
2018-11-07T05:00:13.272Z,14.60
2018-11-07T05:02:42.188Z,13.53
2018-11-07T05:05:10.460Z,14.67
2018-11-07T05:07:38.677Z,14.97
2018-11-07T05:10:08.338Z,15.30
2018-11-07T05:12:36.584Z,13.10
2018-11-07T05:15:04.886Z,17.47
2018-11-07T05:17:33.122Z,14.67
2018-11-07T05:20:01.335Z,14.50
2018-11-07T05:22:29.575Z,15.93
2018-11-07T05:24:57.781Z,17.57
2018-11-07T05:27:26.063Z,13.33
2018-11-07T05:29:54.273Z,14.73
2018-11-07T05:32:22.507Z,14.47
2018-11-07T05:34:50.721Z,15.13
2018-11-07T05:37:19.028Z,15.80
2018-11-07T05:39:47.279Z,14.03
2018-11-07T05:42:15.486Z,16.10
2018-11-07T05:44:43.698Z,13.90
2018-11-07T05:47:11.893Z,13.67
2018-11-07T05:49:40.114Z,13.90
2018-11-07T05:52:08.310Z,14.97
2018-11-07T05:54:36.546Z,13.97
2018-11-07T05:57:04.972Z,14.63
2018-11-07T05:59:33.180Z,13.63
2018-11-07T06:02:01.386Z,12.73
2018-11-07T06:04:29.619Z,10.50
2018-11-07T06:06:57.834Z,11.50
2018-11-07T06:09:26.070Z,9.93
2018-11-07T06:11:54.295Z,10.50
2018-11-07T06:14:22.494Z,8.97
2018-11-07T06:16:50.729Z,14.00
2018-11-07T06:19:19.151Z,16.63
2018-11-07T06:21:47.373Z,11.37
2018-11-07T06:24:15.702Z,10.40
2018-11-07T06:26:44.942Z,10.77
2018-11-07T06:29:13.160Z,11.50
2018-11-07T06:31:41.405Z,10.40
2018-11-07T06:34:09.646Z,10.63
2018-11-07T06:36:37.969Z,10.17
2018-11-07T06:39:08.242Z,11.50
2018-11-07T06:41:36.464Z,8.37
2018-11-07T06:44:16.470Z,12.37
2018-11-07T06:46:44.691Z,9.13
2018-11-07T06:49:13.198Z,8.57
2018-11-07T06:51:41.557Z,10.00
2018-11-07T06:54:10.453Z,7.83
2018-11-07T06:56:38.661Z,7.97
2018-11-07T06:59:07.234Z,7.00
2018-11-07T07:01:35.505Z,9.77
2018-11-07T07:04:03.759Z,9.40
2018-11-07T07:06:32.007Z,6.80
2018-11-07T07:09:00.391Z,6.53
2018-11-07T07:11:28.615Z,6.07
2018-11-07T07:13:56.926Z,8.33
2018-11-07T07:16:25.134Z,9.47
2018-11-07T07:18:53.342Z,9.70
2018-11-07T07:21:27.563Z,8.77
2018-11-07T07:24:03.234Z,7.00
2018-11-07T07:26:31.898Z,7.73
2018-11-07T07:29:00.244Z,5.53
2018-11-07T07:31:32.298Z,6.73
2018-11-07T07:34:01.966Z,6.50
2018-11-07T07:36:35.881Z,6.63
2018-11-07T07:39:07.886Z,9.33
2018-11-07T07:41:37.370Z,7.73
2018-11-07T07:44:05.632Z,8.33
2018-11-07T07:46:33.855Z,8.13
2018-11-07T07:49:02.088Z,10.40
2018-11-07T07:51:31.306Z,11.50
2018-11-07T07:53:59.522Z,12.20
2018-11-07T07:56:27.750Z,12.23
2018-11-07T07:58:56.269Z,12.93
2018-11-07T08:01:28.529Z,11.93
2018-11-07T08:03:56.882Z,11.73
2018-11-07T08:06:25.160Z,10.07
2018-11-07T08:08:53.367Z,9.30
2018-11-07T08:11:21.583Z,9.33
2018-11-07T08:13:49.948Z,11.43
2018-11-07T08:16:20.193Z,9.27
2018-11-07T08:18:50.483Z,8.00
2018-11-07T08:21:18.759Z,10.90
2018-11-07T08:23:48.003Z,8.90
2018-11-07T08:26:16.269Z,8.97
2018-11-07T08:28:44.490Z,9.80
2018-11-07T08:31:12.725Z,7.70
2018-11-07T08:33:40.995Z,10.77
2018-11-07T08:36:09.218Z,7.47
2018-11-07T08:38:37.528Z,7.23
2018-11-07T08:41:05.721Z,9.57
2018-11-07T08:43:33.986Z,6.67
2018-11-07T08:46:02.199Z,8.87
2018-11-07T08:48:30.407Z,5.13
2018-11-07T08:50:58.611Z,6.97
2018-11-07T08:53:26.810Z,4.87
2018-11-07T08:55:55.017Z,9.30
2018-11-07T08:58:23.237Z,6.30
2018-11-07T09:00:51.453Z,6.70
2018-11-07T09:03:19.645Z,7.13
2018-11-07T09:05:47.866Z,4.80
2018-11-07T09:08:16.067Z,6.83
2018-11-07T09:10:44.319Z,5.13
2018-11-07T09:13:12.551Z,7.60
2018-11-07T09:15:40.755Z,7.00
2018-11-07T09:18:08.962Z,6.40
2018-11-07T09:20:37.166Z,6.33
2018-11-07T09:23:07.267Z,7.30
2018-11-07T09:25:35.479Z,5.17
2018-11-07T09:28:03.804Z,4.43
2018-11-07T09:30:32.027Z,4.97
2018-11-07T09:33:00.239Z,5.13
2018-11-07T09:35:28.453Z,6.00
2018-11-07T09:37:56.659Z,4.13
2018-11-07T09:40:24.865Z,6.67
2018-11-07T09:42:53.183Z,7.33
2018-11-07T09:45:22.514Z,10.43
2018-11-07T09:47:50.731Z,5.97
2018-11-07T09:50:19.466Z,4.90
2018-11-07T09:52:47.697Z,4.17
2018-11-07T09:55:17.959Z,4.60
2018-11-07T09:57:46.205Z,4.73
2018-11-07T10:00:16.458Z,3.50
2018-11-07T10:02:45.066Z,3.43
2018-11-07T10:05:14.058Z,4.67
2018-11-07T10:07:42.431Z,5.20
2018-11-07T10:10:13.089Z,9.67
2018-11-07T10:12:41.652Z,3.67
2018-11-07T10:15:10.636Z,3.17
2018-11-07T10:17:39.122Z,6.77
2018-11-07T10:20:12.611Z,2.37
2018-11-07T10:22:41.203Z,6.00
2018-11-07T10:25:09.994Z,4.50
2018-11-07T10:27:38.390Z,6.00
2018-11-07T10:30:08.568Z,3.03
2018-11-07T10:32:36.459Z,3.73
2018-11-07T10:35:05.743Z,3.67
2018-11-07T10:37:33.983Z,6.90
2018-11-07T10:40:02.536Z,5.67
2018-11-07T10:42:30.733Z,7.77
2018-11-07T10:44:59.010Z,7.40
2018-11-07T10:47:27.225Z,3.00
2018-11-07T10:49:55.468Z,3.83
2018-11-07T10:52:23.678Z,4.10
2018-11-07T10:54:51.896Z,3.73
2018-11-07T10:57:20.106Z,6.10
2018-11-07T10:59:50.410Z,5.13
2018-11-07T11:02:24.011Z,2.87
2018-11-07T11:04:52.256Z,5.90
2018-11-07T11:07:20.559Z,2.43
2018-11-07T11:09:48.775Z,5.70
2018-11-07T11:12:16.986Z,4.63
2018-11-07T11:14:45.206Z,4.80
2018-11-07T11:17:13.483Z,3.20
2018-11-07T11:19:41.634Z,4.20
2018-11-07T11:22:09.853Z,5.93
2018-11-07T11:24:38.094Z,4.63
2018-11-07T11:27:06.548Z,4.60
2018-11-07T11:29:34.757Z,2.40
2018-11-07T11:32:03.002Z,3.13
2018-11-07T11:34:31.390Z,3.60
2018-11-07T11:36:59.421Z,3.87
2018-11-07T11:39:27.674Z,6.83
2018-11-07T11:41:55.935Z,6.90
2018-11-07T11:44:24.157Z,2.93
2018-11-07T11:46:52.395Z,3.30
2018-11-07T11:49:20.628Z,5.90
2018-11-07T11:51:48.821Z,5.00
2018-11-07T11:54:17.037Z,13.10
2018-11-07T11:56:45.266Z,3.60
2018-11-07T11:59:13.652Z,2.90
2018-11-07T12:01:41.762Z,3.23
2018-11-07T12:04:09.970Z,2.53
2018-11-07T12:06:38.211Z,5.80
2018-11-07T12:09:07.815Z,6.47
2018-11-07T12:11:36.034Z,4.97
2018-11-07T12:14:04.315Z,3.90
2018-11-07T12:16:32.534Z,3.33
2018-11-07T12:19:00.765Z,7.43
2018-11-07T12:21:28.994Z,6.40
2018-11-07T12:23:57.290Z,5.93
2018-11-07T12:26:25.585Z,5.57
2018-11-07T12:28:53.759Z,5.70
2018-11-07T12:31:22.069Z,4.80
2018-11-07T12:33:50.346Z,5.80
2018-11-07T12:36:18.633Z,6.20
2018-11-07T12:38:46.766Z,4.17
2018-11-07T12:41:15.037Z,3.43
2018-11-07T12:43:43.250Z,4.60
2018-11-07T12:46:11.477Z,4.97
2018-11-07T12:48:39.701Z,2.83
2018-11-07T12:51:09.021Z,5.97
2018-11-07T12:53:37.215Z,4.63
2018-11-07T12:56:05.879Z,2.97
2018-11-07T12:58:34.103Z,3.97
2018-11-07T13:01:02.340Z,8.77
2018-11-07T13:03:30.547Z,3.00
2018-11-07T13:05:59.869Z,1.90
2018-11-07T13:08:28.134Z,3.63
2018-11-07T13:10:56.383Z,2.83
2018-11-07T13:13:24.686Z,2.77
2018-11-07T13:15:52.900Z,2.83
2018-11-07T13:18:21.178Z,4.07
2018-11-07T13:20:49.402Z,3.77
2018-11-07T13:23:17.614Z,4.67
2018-11-07T13:25:52.021Z,6.70
2018-11-07T13:28:20.467Z,3.70
2018-11-07T13:30:48.469Z,4.17
2018-11-07T13:33:16.722Z,4.43
2018-11-07T13:35:44.961Z,7.00
2018-11-07T13:38:13.531Z,3.23
2018-11-07T13:40:41.429Z,5.80
2018-11-07T13:43:09.650Z,3.77
2018-11-07T13:45:37.862Z,5.77
2018-11-07T13:48:06.126Z,2.60
2018-11-07T13:50:34.384Z,4.90
2018-11-07T13:53:02.664Z,3.47
2018-11-07T13:55:30.869Z,2.67
2018-11-07T13:57:59.113Z,4.47
2018-11-07T14:00:27.487Z,10.77
2018-11-07T14:02:57.845Z,4.70
2018-11-07T14:05:26.165Z,6.63
2018-11-07T14:07:54.294Z,3.17
2018-11-07T14:10:23.823Z,5.23
2018-11-07T14:12:52.501Z,5.90
2018-11-07T14:15:20.844Z,4.83
2018-11-07T14:17:49.153Z,2.87
2018-11-07T14:20:17.533Z,4.50
2018-11-07T14:22:45.730Z,5.93
2018-11-07T14:25:14.314Z,5.77
2018-11-07T14:27:42.841Z,6.37
2018-11-07T14:30:13.318Z,2.50
2018-11-07T14:32:44.222Z,3.30
2018-11-07T14:35:12.590Z,2.43
2018-11-07T14:37:40.848Z,1.30
2018-11-07T14:40:09.114Z,3.93
2018-11-07T14:42:37.661Z,3.30
2018-11-07T14:45:07.082Z,2.00
2018-11-07T14:47:35.413Z,2.83
2018-11-07T14:50:03.721Z,4.27
2018-11-07T14:52:31.946Z,4.97
2018-11-07T14:55:00.154Z,3.83
2018-11-07T14:57:28.519Z,4.47
2018-11-07T14:59:56.739Z,4.57
2018-11-07T15:02:25.049Z,5.67
2018-11-07T15:04:53.210Z,4.40
2018-11-07T15:07:21.434Z,4.67
2018-11-07T15:09:49.811Z,3.63
2018-11-07T15:12:18.030Z,4.07
2018-11-07T15:14:46.255Z,3.53
2018-11-07T15:17:14.495Z,8.07
2018-11-07T15:19:42.682Z,2.00
2018-11-07T15:22:10.893Z,2.70
2018-11-07T15:24:39.125Z,2.27
2018-11-07T15:27:07.563Z,6.73
2018-11-07T15:29:35.789Z,4.30
2018-11-07T15:32:04.094Z,7.77
2018-11-07T15:34:32.334Z,3.17
2018-11-07T15:37:00.540Z,6.30
2018-11-07T15:39:28.771Z,3.33
2018-11-07T15:41:57.016Z,4.27
2018-11-07T15:44:25.375Z,3.50
2018-11-07T15:46:53.603Z,4.73
2018-11-07T15:49:21.840Z,4.50
2018-11-07T15:51:54.125Z,3.73
2018-11-07T15:54:22.490Z,5.13
2018-11-07T15:56:50.968Z,4.90
2018-11-07T15:59:19.259Z,2.97
2018-11-07T16:01:47.470Z,4.53
2018-11-07T16:04:15.704Z,3.23
2018-11-07T16:06:44.000Z,2.43
2018-11-07T16:09:12.454Z,2.73
2018-11-07T16:11:40.694Z,2.57
2018-11-07T16:14:08.990Z,3.70
2018-11-07T16:16:37.218Z,1.90
2018-11-07T16:19:05.514Z,4.67
2018-11-07T16:21:33.777Z,3.47
2018-11-07T16:24:02.059Z,4.97
2018-11-07T16:26:30.208Z,3.67
2018-11-07T16:28:58.407Z,4.20
2018-11-07T16:31:26.764Z,3.63
2018-11-07T16:33:54.945Z,3.37
2018-11-07T16:36:23.187Z,3.20
2018-11-07T16:38:51.409Z,4.10
2018-11-07T16:41:19.742Z,3.07
2018-11-07T16:43:47.909Z,3.77
2018-11-07T16:46:16.141Z,3.47
2018-11-07T16:48:44.398Z,4.00
2018-11-07T16:51:12.629Z,4.37
2018-11-07T16:53:40.873Z,1.70
2018-11-07T16:56:09.086Z,1.63
2018-11-07T16:58:37.314Z,4.30
2018-11-07T17:01:05.577Z,3.23
2018-11-07T17:03:33.813Z,3.63
2018-11-07T17:06:02.046Z,6.23
2018-11-07T17:08:30.258Z,4.07
2018-11-07T17:10:58.469Z,2.63
2018-11-07T17:13:26.708Z,5.70
2018-11-07T17:15:54.973Z,1.93
2018-11-07T17:18:23.146Z,2.97
2018-11-07T17:20:51.454Z,3.03
2018-11-07T17:23:19.626Z,3.70
2018-11-07T17:25:47.881Z,1.40
2018-11-07T17:28:16.190Z,4.40
2018-11-07T17:30:44.449Z,1.53
2018-11-07T17:33:12.795Z,1.80
2018-11-07T17:35:41.042Z,5.13
2018-11-07T17:38:09.279Z,4.60
2018-11-07T17:40:37.503Z,2.13
2018-11-07T17:43:06.101Z,1.70
2018-11-07T17:45:34.334Z,3.70
2018-11-07T17:48:02.587Z,3.83
2018-11-07T17:50:30.845Z,3.80
2018-11-07T17:52:59.074Z,3.23
2018-11-07T17:55:27.318Z,2.80
2018-11-07T17:57:55.543Z,6.53
2018-11-07T18:00:28.958Z,2.47
2018-11-07T18:02:57.208Z,2.97
2018-11-07T18:05:25.406Z,4.33
2018-11-07T18:07:53.626Z,3.00
2018-11-07T18:10:21.842Z,1.73
2018-11-07T18:12:52.509Z,2.57
2018-11-07T18:15:20.768Z,1.87
2018-11-07T18:17:48.986Z,4.20
2018-11-07T18:20:17.971Z,4.07
2018-11-07T18:22:46.239Z,2.10
2018-11-07T18:25:15.320Z,4.03
2018-11-07T18:27:43.541Z,3.07
2018-11-07T18:30:13.510Z,1.87
2018-11-07T18:32:42.245Z,3.43
2018-11-07T18:35:12.303Z,2.27
2018-11-07T18:37:40.473Z,3.17
2018-11-07T18:40:13.503Z,3.70
2018-11-07T18:42:41.831Z,3.03
2018-11-07T18:45:11.085Z,1.60
2018-11-07T18:47:41.418Z,2.50
2018-11-07T18:50:10.815Z,4.17
2018-11-07T18:52:40.067Z,1.73
2018-11-07T18:55:09.935Z,3.40
2018-11-07T18:57:38.843Z,3.40
2018-11-07T19:00:11.547Z,2.20
2018-11-07T19:02:39.820Z,4.40
2018-11-07T19:05:08.363Z,3.93
2018-11-07T19:07:38.155Z,2.30
2018-11-07T19:10:08.758Z,3.00
2018-11-07T19:12:47.920Z,3.37
2018-11-07T19:15:17.009Z,1.97
2018-11-07T19:17:47.042Z,3.67
2018-11-07T19:20:16.075Z,6.83
2018-11-07T19:22:44.270Z,4.17
2018-11-07T19:25:16.395Z,1.73
2018-11-07T19:27:44.677Z,2.47
2018-11-07T19:30:19.613Z,5.73
2018-11-07T19:32:48.737Z,3.67
2018-11-07T19:35:17.854Z,2.20
2018-11-07T19:37:46.473Z,3.03
2018-11-07T19:40:17.380Z,2.37
2018-11-07T19:42:45.549Z,2.17
2018-11-07T19:45:15.126Z,5.10
2018-11-07T19:47:43.322Z,4.77
2018-11-07T19:50:13.466Z,2.63
2018-11-07T19:52:41.788Z,4.17
2018-11-07T19:55:13.014Z,1.40
2018-11-07T19:57:41.559Z,8.80
2018-11-07T20:00:12.771Z,2.20
2018-11-07T20:02:43.135Z,3.43
2018-11-07T20:05:11.378Z,3.60
2018-11-07T20:07:39.894Z,2.93
2018-11-07T20:10:14.409Z,3.60
2018-11-07T20:12:42.575Z,4.23
2018-11-07T20:15:13.804Z,2.70
2018-11-07T20:17:42.057Z,3.53
2018-11-07T20:20:10.714Z,5.00
2018-11-07T20:22:39.065Z,4.93
2018-11-07T20:25:08.578Z,3.77
2018-11-07T20:27:36.903Z,2.90
2018-11-07T20:30:10.504Z,4.63
2018-11-07T20:32:42.939Z,3.30
2018-11-07T20:35:14.359Z,4.37
2018-11-07T20:37:42.642Z,2.73
2018-11-07T20:40:16.007Z,2.10
2018-11-07T20:42:44.811Z,3.17
2018-11-07T20:45:14.547Z,2.23
2018-11-07T20:47:43.134Z,2.30
2018-11-07T20:50:17.320Z,4.20
2018-11-07T20:52:46.081Z,5.23
2018-11-07T20:55:14.809Z,2.93
2018-11-07T20:57:43.053Z,2.40
2018-11-07T21:00:18.985Z,2.03
2018-11-07T21:02:47.435Z,3.23
2018-11-07T21:05:15.701Z,4.30
2018-11-07T21:07:43.930Z,4.73
2018-11-07T21:10:15.351Z,2.57
2018-11-07T21:12:43.828Z,3.37
2018-11-07T21:15:13.826Z,3.03
2018-11-07T21:17:42.931Z,2.47
2018-11-07T21:20:11.235Z,3.27
2018-11-07T21:22:40.088Z,3.23
2018-11-07T21:25:08.339Z,2.60
2018-11-07T21:27:36.572Z,3.70
2018-11-07T21:30:06.668Z,2.80
2018-11-07T21:32:34.892Z,3.50
2018-11-07T21:35:03.196Z,4.70
2018-11-07T21:37:31.340Z,3.07
2018-11-07T21:39:59.960Z,4.73
2018-11-07T21:42:28.549Z,2.53
2018-11-07T21:44:56.785Z,3.13
2018-11-07T21:47:25.024Z,2.30
2018-11-07T21:49:53.257Z,3.60
2018-11-07T21:52:21.498Z,6.03
2018-11-07T21:54:49.841Z,2.77
2018-11-07T21:57:18.049Z,4.70
2018-11-07T21:59:46.265Z,2.50
2018-11-07T22:02:14.489Z,4.07
2018-11-07T22:04:42.739Z,5.30
2018-11-07T22:07:10.981Z,5.17
2018-11-07T22:09:39.208Z,3.40
2018-11-07T22:12:07.434Z,5.90
2018-11-07T22:14:35.697Z,5.93
2018-11-07T22:17:05.814Z,3.33
2018-11-07T22:19:34.063Z,3.17
2018-11-07T22:22:02.305Z,2.77
2018-11-07T22:24:30.529Z,3.07
2018-11-07T22:26:58.767Z,3.90
2018-11-07T22:29:26.982Z,3.87
2018-11-07T22:31:55.202Z,4.47
2018-11-07T22:34:23.446Z,3.20
2018-11-07T22:36:51.649Z,4.60
2018-11-07T22:39:19.842Z,4.37
2018-11-07T22:41:48.067Z,5.33
2018-11-07T22:44:16.274Z,3.80
2018-11-07T22:46:44.515Z,4.03
2018-11-07T22:49:12.701Z,3.43
2018-11-07T22:51:40.973Z,3.20
2018-11-07T22:54:09.190Z,3.20
2018-11-07T22:56:37.447Z,3.83
2018-11-07T22:59:05.699Z,3.67
2018-11-07T23:01:40.571Z,4.30
2018-11-07T23:04:09.188Z,3.10
2018-11-07T23:06:38.470Z,3.20
2018-11-07T23:09:10.427Z,4.40
2018-11-07T23:11:40.334Z,4.10
2018-11-07T23:14:10.060Z,4.10
2018-11-07T23:16:38.315Z,3.20
2018-11-07T23:19:06.600Z,3.30
2018-11-07T23:21:34.815Z,5.03
2018-11-07T23:24:03.079Z,4.13
2018-11-07T23:26:31.324Z,6.17
2018-11-07T23:28:59.642Z,4.53
2018-11-07T23:31:27.982Z,4.27
2018-11-07T23:33:56.199Z,4.47
2018-11-07T23:36:24.429Z,5.10
2018-11-07T23:38:52.908Z,2.90
2018-11-07T23:41:21.222Z,3.33
2018-11-07T23:43:49.463Z,3.97
2018-11-07T23:46:17.749Z,3.53
2018-11-07T23:48:45.967Z,5.87
2018-11-07T23:51:14.221Z,4.33
2018-11-07T23:53:42.447Z,3.50
2018-11-07T23:56:10.654Z,5.00
2018-11-07T23:58:38.889Z,6.43
